createdAt,value
2022-08-03T00:00:27.932Z,5.68
2022-08-03T00:02:54.688Z,5.22
2022-08-03T00:05:21.465Z,5.63
2022-08-03T00:07:49.369Z,5.35
2022-08-03T00:10:16.707Z,4.32
2022-08-03T00:12:43.431Z,5.03
2022-08-03T00:15:15.068Z,4.18
2022-08-03T00:17:53.546Z,4.40
2022-08-03T00:20:24.424Z,4.47
2022-08-03T00:22:51.581Z,4.53
2022-08-03T00:25:18.306Z,4.32
2022-08-03T00:27:45.081Z,4.65
2022-08-03T00:30:11.912Z,6.57
2022-08-03T00:32:38.771Z,6.00
2022-08-03T00:35:18.039Z,5.22
2022-08-03T00:37:59.038Z,5.13
2022-08-03T00:40:25.772Z,4.40
2022-08-03T00:42:58.352Z,4.85
2022-08-03T00:45:30.260Z,4.35
2022-08-03T00:47:58.231Z,4.88
2022-08-03T00:50:26.778Z,4.20
2022-08-03T00:52:55.360Z,4.53
2022-08-03T00:55:22.377Z,4.72
2022-08-03T00:57:49.653Z,4.88
2022-08-03T01:00:20.644Z,4.57
2022-08-03T01:02:49.889Z,4.72
2022-08-03T01:05:18.509Z,4.30
2022-08-03T01:08:03.849Z,4.68
2022-08-03T01:10:55.654Z,4.88
2022-08-03T01:14:03.716Z,4.20
2022-08-03T01:16:35.958Z,4.13
2022-08-03T01:19:12.908Z,4.60
2022-08-03T01:21:47.970Z,4.72
2022-08-03T01:24:47.686Z,3.85
2022-08-03T01:27:31.488Z,4.80
2022-08-03T01:30:07.697Z,4.03
2022-08-03T01:33:03.031Z,4.15
2022-08-03T01:35:43.086Z,4.30
2022-08-03T01:38:18.424Z,3.80
2022-08-03T01:40:47.843Z,4.40
2022-08-03T01:43:58.887Z,4.00
2022-08-03T01:46:07.757Z,3.80
2022-08-03T01:48:36.504Z,4.00
2022-08-03T01:51:03.746Z,4.32
2022-08-03T01:53:33.826Z,3.72
2022-08-03T01:56:03.700Z,4.30
2022-08-03T01:58:32.556Z,4.10
2022-08-03T02:01:01.635Z,4.30
2022-08-03T02:03:31.844Z,4.55
2022-08-03T02:06:18.133Z,4.40
2022-08-03T02:08:49.299Z,4.78
2022-08-03T02:11:16.304Z,5.25
2022-08-03T02:13:44.628Z,4.18
2022-08-03T02:16:14.046Z,4.82
2022-08-03T02:18:42.320Z,4.60
2022-08-03T02:21:11.001Z,4.65
2022-08-03T02:23:38.784Z,4.78
2022-08-03T02:26:09.447Z,5.15
2022-08-03T02:28:40.841Z,4.13
2022-08-03T02:31:14.844Z,4.90
2022-08-03T02:33:44.807Z,4.55
2022-08-03T02:36:14.376Z,5.22
2022-08-03T02:38:43.486Z,5.28
2022-08-03T02:41:16.953Z,5.50
2022-08-03T02:44:06.056Z,5.40
2022-08-03T02:46:38.734Z,5.68
2022-08-03T02:49:49.891Z,5.95
2022-08-03T02:51:54.917Z,6.20
2022-08-03T02:54:25.036Z,6.80
2022-08-03T02:56:54.288Z,6.88
2022-08-03T02:59:22.280Z,7.07
2022-08-03T03:01:49.623Z,7.82
2022-08-03T03:04:17.014Z,7.68
2022-08-03T03:06:44.336Z,7.68
2022-08-03T03:09:14.816Z,7.35
2022-08-03T03:11:42.344Z,8.35
2022-08-03T03:14:13.447Z,8.55
2022-08-03T03:16:42.050Z,8.55
2022-08-03T03:19:11.485Z,9.95
2022-08-03T03:21:39.218Z,9.85
2022-08-03T03:24:08.070Z,8.75
2022-08-03T03:26:38.309Z,9.18
2022-08-03T03:29:07.596Z,8.13
2022-08-03T03:31:36.283Z,10.02
2022-08-03T03:34:03.923Z,9.18
2022-08-03T03:36:30.825Z,9.20
2022-08-03T03:38:57.699Z,8.35
2022-08-03T03:41:24.688Z,7.07
2022-08-03T03:43:51.435Z,8.18
2022-08-03T03:46:18.659Z,6.72
2022-08-03T03:48:45.567Z,6.18
2022-08-03T03:51:12.898Z,6.18
2022-08-03T03:53:39.766Z,5.80
2022-08-03T03:56:06.428Z,5.97
2022-08-03T03:58:33.390Z,5.90
2022-08-03T04:01:00.810Z,5.55
2022-08-03T04:03:27.867Z,5.97
2022-08-03T04:06:12.977Z,5.97
2022-08-03T04:09:18.984Z,6.70
2022-08-03T04:11:54.349Z,6.07
2022-08-03T04:14:25.908Z,5.55
2022-08-03T04:16:58.090Z,6.45
2022-08-03T04:19:33.343Z,5.80
2022-08-03T04:22:07.379Z,6.30
2022-08-03T04:25:03.201Z,5.88
2022-08-03T04:27:36.523Z,5.68
2022-08-03T04:30:05.846Z,6.40
2022-08-03T04:32:33.861Z,5.60
2022-08-03T04:35:00.772Z,5.93
2022-08-03T04:37:30.096Z,5.80
2022-08-03T04:40:01.753Z,7.05
2022-08-03T04:45:01.070Z,6.43
2022-08-03T04:49:55.789Z,5.80
2022-08-03T04:52:22.551Z,5.50
2022-08-03T04:54:50.934Z,5.65
2022-08-03T04:57:22.929Z,5.30
2022-08-03T05:00:02.584Z,5.00
2022-08-03T05:02:31.728Z,4.65
2022-08-03T05:04:59.108Z,4.50
2022-08-03T05:07:25.812Z,4.75
2022-08-03T05:09:57.701Z,4.22
2022-08-03T05:12:32.747Z,4.20
2022-08-03T05:15:00.386Z,3.60
2022-08-03T05:17:27.204Z,4.13
2022-08-03T05:19:54.473Z,3.88
2022-08-03T05:22:24.354Z,3.80
2022-08-03T05:24:51.171Z,3.40
2022-08-03T05:27:19.539Z,3.65
2022-08-03T05:29:47.378Z,3.85
2022-08-03T05:32:14.441Z,3.50
2022-08-03T05:34:41.570Z,3.15
2022-08-03T05:37:08.492Z,3.05
2022-08-03T05:39:36.083Z,3.25
2022-08-03T05:42:02.969Z,3.08
2022-08-03T05:44:29.845Z,3.13
2022-08-03T05:46:57.842Z,3.30
2022-08-03T05:49:24.503Z,3.20
2022-08-03T05:51:59.808Z,2.88
2022-08-03T05:54:56.677Z,2.85
2022-08-03T05:57:23.271Z,2.90
2022-08-03T05:59:57.865Z,2.60
2022-08-03T06:02:26.636Z,2.33
2022-08-03T06:04:53.522Z,2.15
2022-08-03T06:07:20.243Z,2.03
2022-08-03T06:10:35.601Z,1.77
2022-08-03T06:12:36.263Z,2.08
2022-08-03T06:15:04.668Z,2.03
2022-08-03T06:17:37.116Z,2.00
2022-08-03T06:20:04.810Z,2.20
2022-08-03T06:22:31.464Z,1.88
2022-08-03T06:24:58.823Z,1.80
2022-08-03T06:27:36.642Z,1.77
2022-08-03T06:30:05.178Z,2.00
2022-08-03T06:32:32.027Z,2.13
2022-08-03T06:34:58.694Z,1.95
2022-08-03T06:37:27.049Z,1.80
2022-08-03T06:39:54.253Z,1.95
2022-08-03T06:42:21.256Z,1.90
2022-08-03T06:44:50.017Z,1.92
2022-08-03T06:47:16.684Z,2.08
2022-08-03T06:49:43.501Z,1.77
2022-08-03T06:52:13.175Z,2.65
2022-08-03T06:54:59.814Z,2.13
2022-08-03T06:57:26.452Z,2.00
2022-08-03T07:00:09.450Z,1.85
2022-08-03T07:02:38.785Z,1.88
2022-08-03T07:05:06.898Z,1.90
2022-08-03T07:07:33.620Z,1.77
2022-08-03T07:10:00.272Z,1.80
2022-08-03T07:12:30.307Z,1.73
2022-08-03T07:15:01.344Z,1.52
2022-08-03T07:17:34.810Z,2.58
2022-08-03T07:20:05.480Z,1.85
2022-08-03T07:22:32.166Z,1.92
2022-08-03T07:24:59.240Z,1.38
2022-08-03T07:27:27.147Z,1.95
2022-08-03T07:29:54.167Z,1.88
2022-08-03T07:32:20.948Z,1.58
2022-08-03T07:34:47.621Z,1.70
2022-08-03T07:37:14.280Z,1.65
2022-08-03T07:39:40.884Z,1.85
2022-08-03T07:42:07.555Z,1.58
2022-08-03T07:44:34.293Z,1.75
2022-08-03T07:47:03.361Z,1.80
2022-08-03T07:49:30.552Z,1.65
2022-08-03T07:52:16.153Z,1.50
2022-08-03T07:54:43.010Z,1.52
2022-08-03T07:57:09.716Z,1.77
2022-08-03T07:59:56.693Z,1.75
2022-08-03T08:02:25.196Z,1.75
2022-08-03T08:04:51.928Z,1.48
2022-08-03T08:07:18.669Z,1.95
2022-08-03T08:09:47.367Z,1.23
2022-08-03T08:12:15.363Z,1.60
2022-08-03T08:14:45.853Z,1.85
2022-08-03T08:17:13.295Z,1.20
2022-08-03T08:19:49.716Z,1.88
2022-08-03T08:22:19.754Z,1.40
2022-08-03T08:24:57.029Z,1.45
2022-08-03T08:27:23.737Z,1.60
2022-08-03T08:29:55.355Z,1.48
2022-08-03T08:32:24.213Z,1.60
2022-08-03T08:34:51.097Z,1.60
2022-08-03T08:37:18.074Z,1.20
2022-08-03T08:39:44.693Z,1.50
2022-08-03T08:42:11.370Z,1.40
2022-08-03T08:44:38.172Z,1.20
2022-08-03T08:47:05.109Z,1.38
2022-08-03T08:49:35.836Z,1.30
2022-08-03T08:52:04.115Z,1.20
2022-08-03T08:54:52.205Z,1.00
2022-08-03T08:57:40.716Z,1.58
2022-08-03T09:00:15.092Z,1.30
2022-08-03T09:02:43.945Z,1.60
2022-08-03T09:05:15.882Z,1.20
2022-08-03T09:07:44.248Z,1.23
2022-08-03T09:10:13.816Z,1.40
2022-08-03T09:12:46.868Z,1.50
2022-08-03T09:15:24.973Z,1.50
2022-08-03T09:17:54.178Z,1.17
2022-08-03T09:20:23.395Z,1.52
2022-08-03T09:22:54.724Z,1.30
2022-08-03T09:25:33.905Z,1.45
2022-08-03T09:28:10.406Z,1.38
2022-08-03T09:30:39.407Z,1.40
2022-08-03T09:33:10.484Z,1.50
2022-08-03T09:35:59.961Z,1.20
2022-08-03T09:38:27.539Z,1.10
2022-08-03T09:40:59.494Z,1.63
2022-08-03T09:43:27.774Z,1.40
2022-08-03T09:46:04.826Z,1.50
2022-08-03T09:48:34.793Z,1.17
2022-08-03T09:51:12.899Z,1.30
2022-08-03T09:53:59.239Z,1.10
2022-08-03T09:56:47.476Z,1.25
2022-08-03T09:59:25.986Z,1.10
2022-08-03T10:01:53.229Z,1.20
2022-08-03T10:04:20.412Z,1.30
2022-08-03T10:07:09.422Z,1.23
2022-08-03T10:09:37.231Z,1.45
2022-08-03T10:12:11.701Z,1.40
2022-08-03T10:14:40.394Z,1.50
2022-08-03T10:17:07.085Z,1.00
2022-08-03T10:19:34.258Z,1.40
2022-08-03T10:22:19.250Z,1.10
2022-08-03T10:24:55.857Z,1.20
2022-08-03T10:27:27.929Z,0.98
2022-08-03T10:29:56.757Z,1.40
2022-08-03T10:32:30.517Z,1.27
2022-08-03T10:35:20.372Z,1.05
2022-08-03T10:38:00.256Z,1.50
2022-08-03T10:43:23.031Z,1.15
2022-08-03T10:45:51.173Z,1.20
2022-08-03T10:48:19.768Z,1.20
2022-08-03T10:50:48.670Z,1.05
2022-08-03T10:53:17.966Z,1.40
2022-08-03T10:56:05.792Z,1.48
2022-08-03T10:58:53.504Z,1.35
2022-08-03T11:02:01.305Z,1.40
2022-08-03T11:04:30.327Z,1.20
2022-08-03T11:07:16.459Z,1.55
2022-08-03T11:09:47.706Z,1.33
2022-08-03T11:15:01.845Z,1.35
2022-08-03T11:17:28.650Z,1.10
2022-08-03T11:19:57.400Z,1.48
2022-08-03T11:22:25.681Z,1.20
2022-08-03T11:24:54.396Z,1.70
2022-08-03T11:27:23.550Z,1.20
2022-08-03T11:30:02.087Z,1.50
2022-08-03T11:32:37.718Z,1.60
2022-08-03T11:35:22.276Z,1.60
2022-08-03T11:38:03.289Z,1.38
2022-08-03T11:40:44.691Z,1.42
2022-08-03T11:43:30.778Z,1.30
2022-08-03T11:45:59.351Z,1.20
2022-08-03T11:48:29.189Z,1.17
2022-08-03T11:50:57.145Z,1.27
2022-08-03T11:53:24.952Z,1.13
2022-08-03T11:55:53.251Z,1.40
2022-08-03T11:59:16.631Z,1.30
2022-08-03T12:01:10.790Z,1.38
2022-08-03T12:03:37.683Z,1.10
2022-08-03T12:06:10.600Z,1.42
2022-08-03T12:08:37.323Z,1.98
2022-08-03T12:11:06.853Z,1.10
2022-08-03T12:14:45.162Z,1.30
2022-08-03T12:16:30.570Z,1.20
2022-08-03T12:18:59.977Z,1.50
2022-08-03T12:21:27.144Z,1.30
2022-08-03T12:24:04.828Z,1.30
2022-08-03T12:26:58.729Z,1.42
2022-08-03T12:29:26.654Z,1.10
2022-08-03T12:31:53.360Z,1.20
2022-08-03T12:34:19.998Z,1.30
2022-08-03T12:36:56.950Z,1.58
2022-08-03T12:39:25.375Z,1.20
2022-08-03T12:41:56.795Z,1.73
2022-08-03T12:44:35.782Z,1.00
2022-08-03T12:47:04.041Z,1.30
2022-08-03T12:49:53.958Z,1.60
2022-08-03T12:52:22.858Z,1.20
2022-08-03T12:54:56.654Z,1.10
2022-08-03T12:57:23.648Z,2.95
2022-08-03T12:59:53.251Z,1.20
2022-08-03T13:02:23.500Z,1.20
2022-08-03T13:04:52.006Z,1.23
2022-08-03T13:07:20.018Z,1.17
2022-08-03T13:09:49.643Z,1.40
2022-08-03T13:12:40.173Z,1.33
2022-08-03T13:15:08.770Z,1.30
2022-08-03T13:17:35.433Z,1.10
2022-08-03T13:20:06.237Z,1.08
2022-08-03T13:22:36.267Z,1.13
2022-08-03T13:25:03.758Z,1.47
2022-08-03T13:28:13.920Z,1.20
2022-08-03T13:30:30.103Z,1.40
2022-08-03T13:32:58.779Z,1.67
2022-08-03T13:35:25.693Z,1.13
2022-08-03T13:37:52.447Z,1.20
2022-08-03T13:40:19.160Z,1.10
2022-08-03T13:42:50.450Z,1.30
2022-08-03T13:45:17.169Z,1.67
2022-08-03T13:47:43.955Z,1.40
2022-08-03T13:50:10.744Z,1.17
2022-08-03T13:52:37.519Z,1.33
2022-08-03T13:55:06.630Z,1.50
2022-08-03T13:58:02.614Z,1.58
2022-08-03T14:00:27.555Z,1.35
2022-08-03T14:03:06.498Z,1.30
2022-08-03T14:05:39.428Z,1.38
2022-08-03T14:08:07.696Z,1.17
2022-08-03T14:10:39.132Z,1.50
2022-08-03T14:13:06.545Z,0.80
2022-08-03T14:15:37.867Z,1.67
2022-08-03T14:18:06.954Z,1.30
2022-08-03T14:20:37.127Z,1.10
2022-08-03T14:23:04.436Z,1.25
2022-08-03T14:25:43.415Z,0.90
2022-08-03T14:28:18.742Z,1.20
2022-08-03T14:30:46.124Z,1.40
2022-08-03T14:33:12.784Z,1.48
2022-08-03T14:35:39.482Z,1.40
2022-08-03T14:38:06.589Z,1.27
2022-08-03T14:40:33.657Z,1.00
2022-08-03T14:43:00.374Z,1.30
2022-08-03T14:45:27.032Z,1.40
2022-08-03T14:50:29.392Z,1.10
2022-08-03T14:50:45.484Z,1.40
2022-08-03T14:53:14.101Z,1.45
2022-08-03T14:55:50.682Z,1.55
2022-08-03T14:58:20.056Z,1.30
2022-08-03T15:00:48.749Z,1.25
2022-08-03T15:03:16.875Z,1.30
2022-08-03T15:05:43.976Z,1.30
2022-08-03T15:08:10.648Z,1.20
2022-08-03T15:10:44.549Z,1.45
2022-08-03T15:13:13.083Z,1.65
2022-08-03T15:15:40.435Z,1.33
2022-08-03T15:18:07.692Z,1.48
2022-08-03T15:20:49.912Z,1.45
2022-08-03T15:23:18.418Z,1.40
2022-08-03T15:26:29.035Z,1.35
2022-08-03T15:28:33.093Z,1.02
2022-08-03T15:31:00.980Z,1.45
2022-08-03T15:33:28.615Z,1.20
2022-08-03T15:35:56.611Z,1.30
2022-08-03T15:38:25.842Z,1.67
2022-08-03T15:40:54.762Z,1.45
2022-08-03T15:43:24.590Z,1.35
2022-08-03T15:46:19.113Z,1.50
2022-08-03T15:48:38.460Z,1.70
2022-08-03T15:51:05.512Z,1.52
2022-08-03T15:53:33.685Z,1.10
2022-08-03T15:56:03.251Z,1.58
2022-08-03T15:59:04.664Z,1.20
2022-08-03T16:01:20.419Z,1.40
2022-08-03T16:03:47.381Z,1.50
2022-08-03T16:06:14.153Z,1.40
2022-08-03T16:08:40.932Z,1.70
2022-08-03T16:11:07.736Z,1.30
2022-08-03T16:14:13.536Z,1.48
2022-08-03T16:16:21.101Z,1.50
2022-08-03T16:18:48.069Z,1.40
2022-08-03T16:21:19.413Z,1.40
2022-08-03T16:23:48.977Z,1.30
2022-08-03T16:26:15.800Z,1.20
2022-08-03T16:28:42.551Z,1.30
2022-08-03T16:31:09.261Z,1.55
2022-08-03T16:33:36.284Z,1.35
2022-08-03T16:36:05.826Z,1.20
2022-08-03T16:38:32.503Z,1.17
2022-08-03T16:40:59.171Z,1.10
2022-08-03T16:43:28.442Z,1.30
2022-08-03T16:45:55.153Z,1.30
2022-08-03T16:48:21.832Z,1.23
2022-08-03T16:50:48.660Z,1.30
2022-08-03T16:53:16.928Z,1.23
2022-08-03T16:55:53.612Z,1.13
2022-08-03T16:58:34.448Z,1.13
2022-08-03T17:01:24.617Z,1.33
2022-08-03T17:04:03.504Z,1.55
2022-08-03T17:06:36.576Z,1.35
2022-08-03T17:09:23.508Z,1.00
2022-08-03T17:11:51.332Z,1.23
2022-08-03T17:14:22.763Z,1.10
2022-08-03T17:19:23.428Z,1.20
2022-08-03T17:21:59.799Z,1.30
2022-08-03T17:24:41.517Z,1.40
2022-08-03T17:28:42.241Z,1.50
2022-08-03T17:30:13.460Z,1.10
2022-08-03T17:32:56.603Z,1.60
2022-08-03T17:35:36.745Z,1.75
2022-08-03T17:38:10.350Z,1.23
2022-08-03T17:40:39.916Z,1.30
2022-08-03T17:44:14.168Z,1.67
2022-08-03T17:46:10.688Z,1.55
2022-08-03T17:48:41.321Z,1.30
2022-08-03T17:53:53.733Z,1.35
2022-08-03T17:56:40.380Z,1.08
2022-08-03T17:59:51.750Z,1.30
2022-08-03T18:03:07.077Z,1.30
2022-08-03T18:06:10.988Z,1.38
2022-08-03T18:08:27.731Z,1.23
2022-08-03T18:11:03.267Z,1.33
2022-08-03T18:13:57.679Z,1.60
2022-08-03T18:16:30.132Z,1.30
2022-08-03T18:19:09.323Z,1.83
2022-08-03T18:22:03.168Z,1.48
2022-08-03T18:24:29.645Z,1.75
2022-08-03T18:26:57.270Z,1.70
2022-08-03T18:29:25.910Z,2.00
2022-08-03T18:32:03.415Z,1.77
2022-08-03T18:34:34.067Z,1.80
2022-08-03T18:37:04.290Z,1.65
2022-08-03T18:39:50.030Z,1.95
2022-08-03T18:42:20.364Z,1.98
2022-08-03T18:44:56.513Z,1.70
2022-08-03T18:47:51.959Z,2.20
2022-08-03T18:50:28.545Z,2.38
2022-08-03T18:53:19.643Z,2.28
2022-08-03T18:56:02.153Z,2.50
2022-08-03T18:58:52.224Z,2.28
2022-08-03T19:01:59.845Z,2.38
2022-08-03T19:04:34.780Z,2.47
2022-08-03T19:07:06.979Z,2.33
2022-08-03T19:09:49.139Z,2.03
2022-08-03T19:12:30.833Z,2.28
2022-08-03T19:15:05.344Z,2.30
2022-08-03T19:20:08.501Z,2.70
2022-08-03T19:22:37.989Z,2.92
2022-08-03T19:25:06.445Z,2.47
2022-08-03T19:27:44.002Z,2.53
2022-08-03T19:30:21.956Z,3.00
2022-08-03T19:32:54.377Z,2.70
2022-08-03T19:35:46.961Z,2.83
2022-08-03T19:38:09.777Z,3.10
2022-08-03T19:40:42.168Z,3.15
2022-08-03T19:43:53.313Z,3.10
2022-08-03T19:46:30.188Z,2.92
2022-08-03T19:49:14.858Z,2.85
2022-08-03T19:51:58.599Z,3.10
2022-08-03T19:54:45.878Z,3.20
2022-08-03T19:57:24.608Z,3.25
2022-08-03T19:59:52.790Z,3.00
2022-08-03T20:02:26.205Z,2.67
2022-08-03T20:04:59.970Z,2.40
2022-08-03T20:07:30.870Z,3.33
2022-08-03T20:09:59.608Z,3.00
2022-08-03T20:12:29.208Z,3.22
2022-08-03T20:14:57.758Z,2.75
2022-08-03T20:17:55.075Z,2.80
2022-08-03T20:20:12.468Z,2.95
2022-08-03T20:22:45.649Z,2.60
2022-08-03T20:25:16.216Z,3.22
2022-08-03T20:28:07.002Z,3.15
2022-08-03T20:30:38.495Z,2.72
2022-08-03T20:35:35.878Z,2.63
2022-08-03T20:38:04.783Z,2.67
2022-08-03T20:40:31.584Z,2.97
2022-08-03T20:42:59.839Z,3.00
2022-08-03T20:45:58.480Z,3.10
2022-08-03T20:48:18.053Z,3.00
2022-08-03T20:50:48.972Z,3.00
2022-08-03T20:53:45.705Z,3.17
2022-08-03T20:56:04.384Z,3.50
2022-08-03T20:58:31.229Z,3.45
2022-08-03T21:00:58.664Z,3.85
2022-08-03T21:06:15.058Z,3.10
2022-08-03T21:08:46.981Z,4.05
2022-08-03T21:11:44.315Z,3.60
2022-08-03T21:14:23.280Z,3.88
2022-08-03T21:16:52.039Z,4.13
2022-08-03T21:19:21.801Z,3.88
2022-08-03T21:21:49.201Z,3.17
2022-08-03T21:24:17.700Z,3.72
2022-08-03T21:26:47.414Z,3.72
2022-08-03T21:29:16.821Z,3.50
2022-08-03T21:31:43.674Z,3.65
2022-08-03T21:34:10.333Z,3.70
2022-08-03T21:36:37.748Z,3.60
2022-08-03T21:39:08.082Z,3.83
2022-08-03T21:41:36.345Z,3.67
2022-08-03T21:44:04.099Z,3.60
2022-08-03T21:46:35.633Z,3.72
2022-08-03T21:50:07.692Z,3.17
2022-08-03T21:51:54.447Z,3.25
2022-08-03T21:54:26.482Z,4.07
2022-08-03T21:56:56.187Z,3.88
2022-08-03T21:59:23.582Z,3.63
2022-08-03T22:01:55.286Z,3.92
2022-08-03T22:04:50.692Z,4.10
2022-08-03T22:07:12.845Z,4.07
2022-08-03T22:09:40.233Z,3.50
2022-08-03T22:12:23.779Z,3.95
2022-08-03T22:15:01.028Z,3.80
2022-08-03T22:17:55.884Z,3.80
2022-08-03T22:20:19.416Z,4.00
2022-08-03T22:22:55.208Z,4.28
2022-08-03T22:25:29.211Z,3.60
2022-08-03T22:27:58.914Z,3.42
2022-08-03T22:30:25.906Z,3.65
2022-08-03T22:32:54.953Z,3.70
2022-08-03T22:35:23.990Z,3.40
2022-08-03T22:37:53.901Z,3.83
2022-08-03T22:40:20.641Z,3.65
2022-08-03T22:42:52.315Z,3.90
2022-08-03T22:46:07.892Z,4.05
2022-08-03T22:48:08.232Z,4.00
2022-08-03T22:50:35.447Z,4.15
2022-08-03T22:53:02.449Z,4.10
2022-08-03T22:55:29.214Z,4.43
2022-08-03T22:57:56.528Z,3.63
2022-08-03T23:00:23.760Z,3.90
2022-08-03T23:02:52.051Z,4.20
2022-08-03T23:06:00.725Z,4.03
2022-08-03T23:08:18.532Z,3.90
2022-08-03T23:10:47.534Z,3.90
2022-08-03T23:13:18.834Z,3.83
2022-08-03T23:15:57.124Z,4.13
2022-08-03T23:18:25.095Z,4.18
2022-08-03T23:20:53.148Z,4.43
2022-08-03T23:23:20.917Z,3.75
2022-08-03T23:25:50.402Z,4.25
2022-08-03T23:28:17.911Z,4.03
2022-08-03T23:30:46.865Z,4.05
2022-08-03T23:33:16.465Z,3.95
2022-08-03T23:36:28.210Z,4.00
2022-08-03T23:38:54.425Z,4.03
2022-08-03T23:41:22.152Z,3.83
2022-08-03T23:43:53.700Z,3.95
2022-08-03T23:46:23.726Z,4.45
2022-08-03T23:48:51.107Z,4.60
2022-08-03T23:51:33.905Z,4.63
2022-08-03T23:54:14.899Z,4.72
2022-08-03T23:56:59.731Z,4.30
2022-08-03T23:59:35.983Z,4.30
